createdAt,value
2018-01-16T00:00:12.556Z,30.59
2018-01-16T00:02:39.962Z,30.54
2018-01-16T00:05:07.351Z,30.57
2018-01-16T00:07:34.741Z,30.48
2018-01-16T00:10:02.154Z,30.38
2018-01-16T00:12:29.548Z,30.40
2018-01-16T00:14:56.943Z,30.47
2018-01-16T00:17:24.468Z,30.52
2018-01-16T00:19:51.876Z,30.50
2018-01-16T00:22:19.281Z,30.43
2018-01-16T00:24:46.617Z,30.69
2018-01-16T00:27:14.102Z,30.38
2018-01-16T00:29:41.473Z,30.43
2018-01-16T00:32:08.913Z,30.37
2018-01-16T00:34:36.334Z,30.34
2018-01-16T00:37:03.682Z,30.51
2018-01-16T00:39:31.098Z,30.46
2018-01-16T00:41:58.481Z,30.44
2018-01-16T00:44:25.830Z,30.45
2018-01-16T00:46:53.241Z,30.40
2018-01-16T00:49:20.642Z,30.34
2018-01-16T00:51:48.140Z,30.43
2018-01-16T00:54:15.559Z,30.32
2018-01-16T00:56:42.985Z,30.40
2018-01-16T00:59:10.330Z,30.36
2018-01-16T01:01:37.812Z,30.53
2018-01-16T01:04:05.202Z,30.40
2018-01-16T01:06:32.627Z,30.27
2018-01-16T01:08:59.990Z,30.24
2018-01-16T01:11:27.473Z,30.31
2018-01-16T01:13:54.896Z,30.28
2018-01-16T01:16:22.250Z,30.29
2018-01-16T01:18:49.665Z,30.35
2018-01-16T01:21:17.089Z,30.30
2018-01-16T01:23:44.494Z,30.25
2018-01-16T01:26:11.951Z,30.30
2018-01-16T01:28:39.321Z,30.26
2018-01-16T01:31:06.727Z,30.18
2018-01-16T01:33:34.145Z,30.15
2018-01-16T01:36:01.630Z,30.17
2018-01-16T01:38:28.991Z,30.18
2018-01-16T01:40:56.339Z,30.14
2018-01-16T01:43:23.785Z,30.11
2018-01-16T01:45:51.121Z,30.24
2018-01-16T01:48:18.595Z,30.09
2018-01-16T01:50:46.016Z,30.05
2018-01-16T01:53:13.385Z,30.08
2018-01-16T01:55:40.924Z,30.06
2018-01-16T01:58:08.374Z,30.05
2018-01-16T02:00:35.758Z,30.07
2018-01-16T02:03:03.190Z,29.55
2018-01-16T02:05:30.588Z,29.86
2018-01-16T02:07:57.991Z,30.51
2018-01-16T02:10:25.400Z,31.17
2018-01-16T02:12:52.848Z,31.70
2018-01-16T02:15:20.195Z,32.61
2018-01-16T02:17:47.613Z,32.68
2018-01-16T02:20:15.042Z,33.20
2018-01-16T02:22:42.473Z,33.55
2018-01-16T02:25:09.932Z,33.99
2018-01-16T02:27:37.277Z,34.43
2018-01-16T02:30:04.641Z,34.68
2018-01-16T02:32:32.068Z,34.76
2018-01-16T02:34:59.488Z,35.12
2018-01-16T02:37:26.912Z,35.38
2018-01-16T02:39:54.282Z,35.93
2018-01-16T02:42:21.691Z,36.34
2018-01-16T02:44:49.046Z,36.34
2018-01-16T02:47:16.446Z,36.83
2018-01-16T02:49:43.894Z,36.93
2018-01-16T02:52:11.380Z,37.06
2018-01-16T02:54:38.765Z,37.56
2018-01-16T02:57:06.183Z,37.80
2018-01-16T02:59:33.583Z,37.99
2018-01-16T03:02:00.984Z,38.33
2018-01-16T03:04:28.351Z,38.55
2018-01-16T03:06:55.741Z,38.74
2018-01-16T03:09:23.153Z,38.79
2018-01-16T03:11:50.546Z,39.27
2018-01-16T03:14:17.921Z,39.70
2018-01-16T03:16:45.345Z,39.70
2018-01-16T03:19:12.723Z,40.03
2018-01-16T03:21:40.158Z,40.14
2018-01-16T03:24:07.584Z,40.38
2018-01-16T03:26:35.070Z,40.83
2018-01-16T03:29:02.644Z,40.85
2018-01-16T03:31:30.246Z,40.71
2018-01-16T03:33:57.726Z,41.03
2018-01-16T03:36:25.183Z,41.34
2018-01-16T03:38:52.629Z,41.54
2018-01-16T03:41:19.990Z,41.58
2018-01-16T03:43:47.430Z,41.63
2018-01-16T03:46:14.822Z,42.14
2018-01-16T03:48:42.260Z,41.98
2018-01-16T03:51:09.647Z,42.28
2018-01-16T03:53:37.079Z,42.40
2018-01-16T03:56:04.610Z,42.67
2018-01-16T03:58:31.989Z,42.63
2018-01-16T04:00:59.443Z,42.74
2018-01-16T04:03:27.115Z,42.78
2018-01-16T04:05:54.453Z,42.81
2018-01-16T04:08:21.955Z,43.01
2018-01-16T04:10:49.342Z,42.86
2018-01-16T04:13:16.735Z,42.91
2018-01-16T04:15:44.144Z,43.12
2018-01-16T04:18:11.566Z,43.20
2018-01-16T04:20:39.211Z,42.80
2018-01-16T04:23:06.564Z,43.24
2018-01-16T04:25:33.985Z,43.30
2018-01-16T04:28:01.474Z,43.02
2018-01-16T04:30:28.927Z,43.00
2018-01-16T04:32:56.339Z,43.05
2018-01-16T04:35:23.759Z,42.92
2018-01-16T04:37:51.232Z,42.65
2018-01-16T04:40:18.705Z,42.56
2018-01-16T04:42:46.090Z,42.25
2018-01-16T04:45:13.501Z,42.34
2018-01-16T04:47:40.893Z,42.24
2018-01-16T04:50:08.337Z,42.35
2018-01-16T04:52:35.876Z,42.26
2018-01-16T04:55:03.258Z,42.43
2018-01-16T04:57:30.693Z,42.31
2018-01-16T04:59:58.075Z,42.29
2018-01-16T05:02:25.565Z,42.52
2018-01-16T05:04:52.930Z,42.39
2018-01-16T05:07:20.302Z,42.30
2018-01-16T05:09:47.730Z,42.22
2018-01-16T05:12:15.239Z,42.36
2018-01-16T05:14:42.735Z,42.41
2018-01-16T05:17:10.173Z,42.61
2018-01-16T05:19:37.563Z,42.54
2018-01-16T05:22:05.105Z,42.56
2018-01-16T05:24:32.551Z,42.73
2018-01-16T05:26:59.957Z,42.76
2018-01-16T05:29:28.211Z,42.90
2018-01-16T05:31:55.638Z,42.74
2018-01-16T05:34:23.029Z,42.72
2018-01-16T05:36:50.402Z,42.86
2018-01-16T05:39:17.799Z,43.01
2018-01-16T05:41:47.531Z,42.97
2018-01-16T05:44:15.161Z,42.87
2018-01-16T05:46:42.663Z,42.76
2018-01-16T05:49:10.065Z,42.71
2018-01-16T05:51:37.853Z,42.65
2018-01-16T05:54:06.231Z,42.46
2018-01-16T05:56:33.667Z,42.51
2018-01-16T05:59:01.086Z,42.49
2018-01-16T06:01:28.493Z,42.31
2018-01-16T06:03:55.959Z,42.25
2018-01-16T06:06:23.560Z,42.18
2018-01-16T06:11:24.364Z,42.30
2018-01-16T06:13:51.764Z,42.32
2018-01-16T06:16:19.247Z,42.34
2018-01-16T06:18:46.678Z,42.31
2018-01-16T06:21:14.691Z,42.43
2018-01-16T06:23:42.534Z,42.40
2018-01-16T06:26:09.965Z,42.47
2018-01-16T06:28:37.380Z,42.43
2018-01-16T06:31:05.163Z,42.57
2018-01-16T06:33:32.641Z,42.24
2018-01-16T06:36:00.046Z,42.37
2018-01-16T06:38:27.534Z,42.21
2018-01-16T06:40:54.986Z,42.51
2018-01-16T06:43:22.504Z,41.79
2018-01-16T06:45:49.932Z,41.88
2018-01-16T06:48:17.333Z,41.76
2018-01-16T06:50:44.817Z,41.85
2018-01-16T06:53:13.178Z,41.78
2018-01-16T06:55:42.167Z,41.44
2018-01-16T06:58:09.576Z,41.14
2018-01-16T07:00:37.063Z,41.27
2018-01-16T07:03:06.322Z,41.57
2018-01-16T07:05:34.166Z,41.29
2018-01-16T07:08:01.671Z,41.15
2018-01-16T07:10:29.282Z,41.47
2018-01-16T07:12:56.819Z,41.55
2018-01-16T07:15:24.232Z,41.51
2018-01-16T07:17:51.695Z,41.56
2018-01-16T07:20:19.254Z,41.64
2018-01-16T07:22:46.700Z,41.63
2018-01-16T07:25:17.195Z,41.50
2018-01-16T07:27:44.920Z,42.02
2018-01-16T07:30:12.398Z,42.31
2018-01-16T07:32:39.942Z,41.63
2018-01-16T07:35:07.452Z,41.79
2018-01-16T07:37:34.957Z,42.47
2018-01-16T07:40:02.650Z,41.35
2018-01-16T07:42:30.298Z,41.75
2018-01-16T07:44:57.768Z,41.54
2018-01-16T07:47:25.256Z,41.63
2018-01-16T07:49:52.711Z,41.48
2018-01-16T07:52:20.247Z,41.17
2018-01-16T07:54:47.786Z,41.63
2018-01-16T07:57:15.353Z,41.83
2018-01-16T07:59:43.227Z,41.54
2018-01-16T08:02:11.155Z,41.62
2018-01-16T08:04:38.634Z,41.20
2018-01-16T08:07:06.216Z,41.16
2018-01-16T08:09:41.425Z,41.27
2018-01-16T08:12:12.641Z,41.32
2018-01-16T08:14:42.510Z,41.35
2018-01-16T08:17:11.942Z,41.38
2018-01-16T08:19:40.068Z,41.44
2018-01-16T08:22:07.657Z,41.17
2018-01-16T08:24:35.700Z,41.08
2018-01-16T08:27:04.534Z,41.10
2018-01-16T08:29:32.792Z,41.20
2018-01-16T08:32:03.423Z,41.44
2018-01-16T08:34:33.515Z,40.68
2018-01-16T08:37:00.979Z,40.96
2018-01-16T08:39:30.123Z,40.94
2018-01-16T08:41:58.275Z,41.11
2018-01-16T08:44:26.961Z,40.80
2018-01-16T08:46:56.447Z,41.05
2018-01-16T08:49:25.711Z,40.85
2018-01-16T08:51:54.012Z,40.86
2018-01-16T08:54:24.588Z,41.06
2018-01-16T08:56:56.091Z,41.07
2018-01-16T08:59:24.058Z,41.03
2018-01-16T09:01:51.535Z,41.28
2018-01-16T09:04:23.160Z,41.41
2018-01-16T09:06:55.606Z,41.44
2018-01-16T09:09:23.869Z,41.54
2018-01-16T09:11:52.503Z,41.41
2018-01-16T09:14:21.634Z,41.34
2018-01-16T09:16:50.449Z,41.73
2018-01-16T09:19:18.712Z,41.75
2018-01-16T09:21:47.609Z,41.69
2018-01-16T09:24:16.983Z,41.45
2018-01-16T09:26:44.650Z,41.36
2018-01-16T09:29:13.574Z,41.39
2018-01-16T09:31:50.412Z,41.19
2018-01-16T09:34:21.363Z,41.33
2018-01-16T09:36:52.617Z,41.11
2018-01-16T09:39:20.187Z,41.06
2018-01-16T09:41:47.958Z,40.83
2018-01-16T09:44:15.832Z,40.99
2018-01-16T09:46:44.409Z,40.86
2018-01-16T09:49:16.648Z,40.90
2018-01-16T09:51:48.325Z,41.18
2018-01-16T09:54:15.790Z,41.73
2018-01-16T09:56:43.335Z,41.00
2018-01-16T09:59:13.159Z,41.79
2018-01-16T10:01:43.133Z,41.44
2018-01-16T10:04:11.152Z,40.87
2018-01-16T10:06:39.115Z,40.93
2018-01-16T10:09:06.728Z,40.73
2018-01-16T10:11:34.320Z,40.76
2018-01-16T10:14:01.869Z,40.99
2018-01-16T10:16:29.455Z,40.53
2018-01-16T10:18:59.367Z,41.22
2018-01-16T10:21:27.036Z,40.38
2018-01-16T10:23:55.109Z,40.88
2018-01-16T10:26:22.744Z,40.12
2018-01-16T10:28:50.424Z,40.23
2018-01-16T10:31:18.306Z,40.85
2018-01-16T10:33:45.912Z,40.14
2018-01-16T10:36:14.324Z,40.18
2018-01-16T10:38:43.439Z,39.79
2018-01-16T10:41:11.470Z,39.73
2018-01-16T10:43:39.153Z,40.37
2018-01-16T10:46:07.210Z,39.77
2018-01-16T10:48:35.082Z,40.05
2018-01-16T10:51:02.841Z,39.96
2018-01-16T10:53:30.955Z,40.06
2018-01-16T10:55:58.561Z,39.79
2018-01-16T10:58:27.475Z,40.08
2018-01-16T11:00:55.077Z,39.98
2018-01-16T11:03:22.969Z,40.17
2018-01-16T11:05:51.092Z,40.21
2018-01-16T11:08:18.618Z,40.29
2018-01-16T11:10:46.054Z,40.50
2018-01-16T11:13:13.868Z,40.34
2018-01-16T11:15:42.123Z,40.35
2018-01-16T11:18:09.790Z,40.53
2018-01-16T11:20:39.971Z,40.49
2018-01-16T11:23:07.679Z,40.52
2018-01-16T11:25:35.549Z,40.61
2018-01-16T11:28:03.122Z,40.80
2018-01-16T11:30:30.980Z,40.67
2018-01-16T11:32:58.628Z,40.74
2018-01-16T11:35:26.996Z,40.75
2018-01-16T11:37:54.856Z,40.57
2018-01-16T11:40:22.560Z,40.72
2018-01-16T11:42:50.346Z,40.77
2018-01-16T11:45:18.213Z,40.85
2018-01-16T11:47:50.754Z,41.43
2018-01-16T11:50:18.812Z,41.12
2018-01-16T11:52:46.381Z,41.33
2018-01-16T11:55:14.197Z,40.53
2018-01-16T11:57:43.253Z,41.19
2018-01-16T12:00:12.625Z,40.75
2018-01-16T12:02:40.142Z,40.73
2018-01-16T12:05:07.749Z,40.68
2018-01-16T12:07:35.674Z,41.02
2018-01-16T12:10:07.404Z,40.85
2018-01-16T12:12:37.195Z,40.90
2018-01-16T12:15:06.212Z,40.85
2018-01-16T12:17:34.102Z,40.91
2018-01-16T12:20:03.920Z,40.98
2018-01-16T12:22:31.715Z,41.12
2018-01-16T12:25:01.104Z,41.09
2018-01-16T12:27:29.330Z,41.13
2018-01-16T12:29:58.965Z,41.17
2018-01-16T12:35:04.523Z,41.35
2018-01-16T12:37:35.258Z,41.39
2018-01-16T12:40:07.997Z,41.32
2018-01-16T12:42:38.352Z,41.43
2018-01-16T12:45:09.738Z,41.47
2018-01-16T12:47:38.673Z,41.42
2018-01-16T12:50:07.165Z,41.47
2018-01-16T12:52:37.183Z,41.57
2018-01-16T12:55:05.796Z,41.53
2018-01-16T12:57:35.272Z,41.52
2018-01-16T13:00:05.519Z,41.55
2018-01-16T13:02:36.049Z,41.80
2018-01-16T13:07:38.616Z,41.75
2018-01-16T13:10:08.490Z,42.00
2018-01-16T13:12:50.648Z,42.13
2018-01-16T13:15:20.184Z,42.01
2018-01-16T13:17:50.065Z,42.05
2018-01-16T13:20:19.109Z,42.36
2018-01-16T13:22:50.015Z,42.55
2018-01-16T13:25:17.962Z,42.54
2018-01-16T13:27:49.949Z,42.62
2018-01-16T13:30:28.179Z,42.73
2018-01-16T13:32:56.958Z,42.60
2018-01-16T13:35:25.258Z,42.56
2018-01-16T13:37:54.880Z,42.65
2018-01-16T13:40:23.851Z,42.55
2018-01-16T13:42:51.593Z,42.75
2018-01-16T13:45:19.400Z,42.88
2018-01-16T13:47:47.099Z,42.78
2018-01-16T13:50:14.762Z,43.10
2018-01-16T13:52:42.496Z,43.26
2018-01-16T13:55:10.264Z,43.22
2018-01-16T13:57:39.335Z,43.21
2018-01-16T14:00:07.166Z,43.29
2018-01-16T14:02:35.144Z,43.29
2018-01-16T14:05:02.972Z,43.31
2018-01-16T14:07:30.547Z,43.08
2018-01-16T14:09:58.285Z,43.09
2018-01-16T14:12:26.385Z,42.99
2018-01-16T14:14:58.769Z,42.84
2018-01-16T14:17:27.623Z,42.93
2018-01-16T14:19:59.565Z,42.75
2018-01-16T14:22:27.296Z,42.58
2018-01-16T14:24:55.620Z,42.84
2018-01-16T14:27:28.305Z,43.33
2018-01-16T14:29:57.386Z,43.09
2018-01-16T14:32:25.288Z,42.70
2018-01-16T14:34:53.230Z,42.59
2018-01-16T14:37:20.988Z,42.35
2018-01-16T14:39:48.585Z,42.56
2018-01-16T14:42:16.161Z,42.52
2018-01-16T14:44:43.878Z,42.20
2018-01-16T14:47:11.479Z,42.52
2018-01-16T14:49:39.293Z,42.44
2018-01-16T14:52:07.117Z,42.43
2018-01-16T14:54:36.475Z,42.47
2018-01-16T14:57:05.453Z,42.60
2018-01-16T14:59:32.925Z,42.59
2018-01-16T15:02:01.806Z,42.26
2018-01-16T15:04:33.877Z,42.13
2018-01-16T15:07:01.835Z,42.33
2018-01-16T15:09:32.164Z,42.24
2018-01-16T15:12:02.758Z,42.02
2018-01-16T15:14:31.140Z,41.80
2018-01-16T15:16:58.756Z,42.11
2018-01-16T15:19:27.541Z,41.72
2018-01-16T15:21:58.953Z,41.59
2018-01-16T15:24:26.794Z,42.18
2018-01-16T15:27:03.021Z,41.66
2018-01-16T15:29:31.426Z,42.02
2018-01-16T15:31:59.021Z,41.60
2018-01-16T15:34:26.624Z,41.56
2018-01-16T15:36:54.605Z,41.75
2018-01-16T15:39:22.288Z,41.64
2018-01-16T15:41:49.931Z,41.58
2018-01-16T15:44:17.789Z,41.45
2018-01-16T15:46:45.371Z,41.69
2018-01-16T15:49:14.417Z,42.01
2018-01-16T15:51:42.150Z,41.73
2018-01-16T15:54:11.781Z,41.72
2018-01-16T15:56:39.448Z,41.59
2018-01-16T15:59:07.053Z,41.35
2018-01-16T16:01:34.608Z,41.68
2018-01-16T16:04:02.566Z,41.36
2018-01-16T16:06:30.465Z,41.56
2018-01-16T16:08:57.995Z,41.37
2018-01-16T16:11:25.568Z,41.55
2018-01-16T16:13:53.350Z,41.28
2018-01-16T16:16:20.875Z,41.33
2018-01-16T16:18:48.344Z,41.49
2018-01-16T16:21:15.987Z,41.67
2018-01-16T16:23:43.454Z,41.55
2018-01-16T16:26:11.773Z,41.67
2018-01-16T16:28:39.410Z,41.42
2018-01-16T16:31:12.316Z,41.91
2018-01-16T16:33:39.906Z,41.59
2018-01-16T16:36:07.505Z,41.40
2018-01-16T16:38:35.362Z,41.37
2018-01-16T16:41:03.007Z,41.68
2018-01-16T16:43:31.705Z,41.51
2018-01-16T16:45:59.257Z,41.71
2018-01-16T16:48:27.020Z,41.52
2018-01-16T16:50:54.672Z,41.45
2018-01-16T16:53:22.062Z,41.32
2018-01-16T16:55:49.601Z,41.31
2018-01-16T16:58:17.171Z,41.71
2018-01-16T17:00:44.561Z,41.52
2018-01-16T17:03:12.062Z,41.25
2018-01-16T17:05:39.555Z,41.94
2018-01-16T17:08:06.971Z,41.33
2018-01-16T17:10:34.698Z,41.13
2018-01-16T17:13:02.114Z,41.42
2018-01-16T17:15:29.515Z,41.36
2018-01-16T17:17:56.938Z,41.11
2018-01-16T17:20:24.342Z,41.29
2018-01-16T17:22:51.824Z,41.28
2018-01-16T17:25:19.284Z,41.35
2018-01-16T17:27:46.728Z,41.34
2018-01-16T17:30:14.452Z,41.33
2018-01-16T17:32:42.666Z,41.16
2018-01-16T17:35:10.081Z,41.16
2018-01-16T17:37:37.463Z,41.18
2018-01-16T17:40:04.958Z,41.22
2018-01-16T17:42:32.470Z,41.14
2018-01-16T17:44:59.946Z,41.17
2018-01-16T17:47:27.662Z,41.29
2018-01-16T17:49:55.071Z,41.32
2018-01-16T17:52:22.517Z,41.36
2018-01-16T17:54:50.031Z,41.44
2018-01-16T17:57:17.417Z,41.44
2018-01-16T17:59:44.949Z,41.51
2018-01-16T18:02:12.435Z,41.52
2018-01-16T18:04:39.968Z,41.43
2018-01-16T18:07:07.389Z,41.66
2018-01-16T18:09:34.847Z,41.49
2018-01-16T18:12:02.367Z,41.26
2018-01-16T18:14:29.784Z,41.03
2018-01-16T18:16:57.158Z,40.72
2018-01-16T18:19:24.670Z,40.30
2018-01-16T18:21:52.097Z,40.05
2018-01-16T18:24:20.020Z,39.75
2018-01-16T18:26:47.556Z,39.50
2018-01-16T18:29:15.028Z,39.20
2018-01-16T18:31:42.549Z,39.19
2018-01-16T18:34:09.993Z,38.93
2018-01-16T18:36:37.421Z,38.72
2018-01-16T18:39:05.038Z,38.34
2018-01-16T18:41:32.415Z,38.19
2018-01-16T18:43:59.822Z,37.91
2018-01-16T18:46:27.209Z,37.65
2018-01-16T18:48:54.776Z,37.38
2018-01-16T18:51:22.239Z,37.27
2018-01-16T18:53:49.985Z,37.11
2018-01-16T18:56:17.390Z,36.95
2018-01-16T18:58:45.120Z,36.87
2018-01-16T19:01:12.748Z,36.75
2018-01-16T19:03:40.166Z,36.58
2018-01-16T19:06:07.598Z,36.45
2018-01-16T19:08:35.048Z,36.44
2018-01-16T19:11:02.537Z,36.30
2018-01-16T19:13:29.943Z,36.18
2018-01-16T19:15:57.354Z,36.05
2018-01-16T19:18:25.576Z,35.97
2018-01-16T19:20:53.243Z,35.85
2018-01-16T19:23:20.693Z,35.81
2018-01-16T19:25:48.078Z,35.66
2018-01-16T19:28:15.533Z,35.60
2018-01-16T19:30:42.923Z,35.66
2018-01-16T19:33:10.347Z,35.49
2018-01-16T19:35:37.796Z,35.25
2018-01-16T19:38:05.158Z,35.27
2018-01-16T19:40:32.721Z,35.09
2018-01-16T19:43:00.393Z,35.09
2018-01-16T19:45:27.755Z,35.16
2018-01-16T19:47:55.130Z,35.00
2018-01-16T19:50:22.632Z,34.83
2018-01-16T19:52:50.036Z,34.95
2018-01-16T19:55:17.417Z,34.78
2018-01-16T19:57:45.007Z,34.77
2018-01-16T20:00:12.391Z,34.83
2018-01-16T20:02:39.879Z,34.61
2018-01-16T20:05:07.244Z,34.55
2018-01-16T20:07:34.693Z,34.43
2018-01-16T20:10:02.142Z,34.55
2018-01-16T20:12:29.573Z,34.44
2018-01-16T20:14:56.983Z,34.50
2018-01-16T20:17:24.355Z,34.43
2018-01-16T20:19:51.816Z,34.46
2018-01-16T20:22:19.456Z,34.43
2018-01-16T20:24:46.902Z,34.47
2018-01-16T20:27:14.367Z,34.50
2018-01-16T20:29:41.864Z,34.54
2018-01-16T20:32:09.275Z,34.49
2018-01-16T20:34:36.694Z,34.55
2018-01-16T20:37:04.113Z,34.48
2018-01-16T20:39:31.630Z,34.50
2018-01-16T20:41:59.360Z,34.42
2018-01-16T20:44:26.775Z,34.37
2018-01-16T20:46:54.216Z,34.25
2018-01-16T20:49:21.599Z,34.25
2018-01-16T20:51:49.144Z,34.15
2018-01-16T20:54:16.587Z,34.20
2018-01-16T20:56:44.038Z,34.16
2018-01-16T20:59:11.418Z,34.25
2018-01-16T21:01:38.862Z,34.10
2018-01-16T21:04:06.250Z,34.10
2018-01-16T21:06:33.642Z,34.01
2018-01-16T21:09:01.118Z,33.97
2018-01-16T21:11:28.486Z,33.96
2018-01-16T21:13:55.906Z,33.79
2018-01-16T21:16:23.332Z,33.86
2018-01-16T21:18:50.767Z,33.86
2018-01-16T21:21:18.315Z,33.80
2018-01-16T21:23:45.687Z,33.93
2018-01-16T21:26:13.135Z,33.90
2018-01-16T21:28:40.525Z,33.91
2018-01-16T21:31:07.965Z,33.86
2018-01-16T21:36:08.852Z,33.60
2018-01-16T21:38:36.304Z,33.66
2018-01-16T21:41:03.843Z,33.61
2018-01-16T21:43:31.210Z,33.63
2018-01-16T21:45:58.593Z,33.69
2018-01-16T21:48:26.000Z,33.66
2018-01-16T21:50:53.413Z,33.61
2018-01-16T21:53:20.825Z,33.56
2018-01-16T21:55:48.191Z,33.52
2018-01-16T21:58:16.435Z,33.55
2018-01-16T22:00:43.847Z,33.47
2018-01-16T22:03:11.320Z,33.45
2018-01-16T22:05:38.727Z,33.39
2018-01-16T22:08:06.210Z,33.45
2018-01-16T22:10:33.595Z,33.52
2018-01-16T22:13:01.119Z,33.47
2018-01-16T22:15:28.548Z,33.39
2018-01-16T22:17:55.924Z,33.32
2018-01-16T22:20:23.433Z,33.41
2018-01-16T22:22:50.846Z,33.32
2018-01-16T22:25:18.327Z,33.30
2018-01-16T22:27:45.706Z,33.36
2018-01-16T22:30:13.163Z,33.49
2018-01-16T22:32:40.631Z,33.42
2018-01-16T22:35:08.030Z,33.49
2018-01-16T22:37:35.449Z,33.55
2018-01-16T22:40:02.846Z,33.42
2018-01-16T22:42:30.235Z,33.31
2018-01-16T22:44:57.715Z,33.22
2018-01-16T22:47:25.218Z,33.25
2018-01-16T22:49:52.707Z,33.15
2018-01-16T22:52:20.435Z,33.24
2018-01-16T22:54:48.032Z,33.29
2018-01-16T22:57:15.479Z,33.25
2018-01-16T22:59:43.178Z,33.18
2018-01-16T23:02:10.584Z,33.29
2018-01-16T23:04:38.035Z,33.02
2018-01-16T23:07:05.696Z,33.05
2018-01-16T23:09:33.121Z,33.08
2018-01-16T23:12:00.559Z,32.96
2018-01-16T23:14:27.950Z,33.00
2018-01-16T23:16:55.319Z,32.98
2018-01-16T23:19:22.847Z,32.95
2018-01-16T23:21:50.268Z,33.01
2018-01-16T23:24:17.705Z,33.18
2018-01-16T23:26:45.311Z,33.00
2018-01-16T23:29:12.710Z,32.97
2018-01-16T23:31:40.149Z,33.01
2018-01-16T23:34:07.531Z,32.92
2018-01-16T23:36:34.948Z,33.00
2018-01-16T23:39:02.342Z,32.94
2018-01-16T23:41:29.761Z,33.06
2018-01-16T23:43:57.721Z,32.99
2018-01-16T23:46:25.147Z,33.10
2018-01-16T23:48:52.857Z,33.08
2018-01-16T23:51:20.279Z,33.00
2018-01-16T23:53:47.762Z,32.92
2018-01-16T23:56:15.305Z,32.95
2018-01-16T23:58:42.772Z,32.92
